Livorno Express — ZCDV9 — position and weather

sailwx.info

Track history (hours):
 
Tides and Currents Weather Stations Pressure Air Temp Water Temp Dewpoint Dewpoint Depression Visibility Wind Speed Wind Dir Waves Ship Positions

Livorno Express

Last reported at 2014-Nov-14 14:21 UTC. Time now 2014-Nov-27 11:52 UTC.
Position N 36°31' E 014°26'.
Warning: this ship's position is 12 days out of date.

Type: Cargo ship. MMSI: 310541000.

Date/timePositionNaut miles runAvg speedWind from/ knotsBaromVisibWave heightAir tempDewpointWater temp
2014-Nov-14 14:21N 36°31' E 014°26'2815.8
2014-Nov-14 12:33N 36°42' E 013°53'1616.0
2014-Nov-14 11:33N 36°48' E 013°35'23215.3
2014-Nov-13 20:22N 38°55' E 009°30'1012.8
2014-Nov-13 19:33N 39°01' E 009°18'7 7.3
2014-Nov-13 18:33N 39°05' E 009°11'9 8.9
2014-Nov-13 17:33N 39°12' E 009°05'1 0.6
2014-Nov-13 16:31N 39°13' E 009°04'0 0.0
2014-Nov-13 15:31N 39°13' E 009°04'0 0.0
2014-Nov-13 14:31N 39°13' E 009°04'0 0.0
2014-Nov-13 13:31N 39°13' E 009°04'0 0.0
2014-Nov-13 12:31N 39°13' E 009°04'0 0.0
2014-Nov-13 11:31N 39°13' E 009°04'0 0.0
2014-Nov-13 10:31N 39°13' E 009°04'0 0.0
2014-Nov-13 09:31N 39°13' E 009°04'0 0.0
2014-Nov-13 08:31N 39°13' E 009°04'0 0.0
2014-Nov-13 07:31N 39°13' E 009°04'0 0.0
2014-Nov-13 06:32N 39°13' E 009°04'0 0.0
2014-Nov-13 05:24N 39°13' E 009°04'0 0.0
2014-Nov-13 04:30N 39°13' E 009°04'0 0.0
2014-Nov-13 03:31N 39°13' E 009°04'0 0.0
2014-Nov-13 02:16N 39°13' E 009°04'0 0.0
2014-Nov-13 01:31N 39°13' E 009°04'0 0.0
2014-Nov-13 00:31N 39°13' E 009°04'0 0.0
2014-Nov-12 23:16N 39°13' E 009°04'0 0.0
2014-Nov-12 22:28N 39°13' E 009°04'0 0.0
2014-Nov-12 21:31N 39°13' E 009°04'0 0.0
2014-Nov-12 20:31N 39°13' E 009°04'0 0.0
2014-Nov-12 19:31N 39°13' E 009°04'0 0.0
2014-Nov-12 18:28N 39°13' E 009°04'0 0.0
2014-Nov-12 17:31N 39°13' E 009°04'0 0.0
2014-Nov-12 16:31N 39°13' E 009°04'2 2.3
2014-Nov-12 15:33N 39°11' E 009°06'7 6.7
2014-Nov-12 14:33N 39°05' E 009°10'1212.4
2014-Nov-12 13:33N 38°58' E 009°23'1714.4
2014-Nov-12 12:23N 38°60' E 009°45'19915.5
2014-Nov-11 23:33N 40°14' E 013°44'1615.3
2014-Nov-11 22:32N 40°20' E 014°03'1615.8
2014-Nov-11 21:33N 40°26' E 014°21'14 0.7
2014-Nov-11 03:14N 40°33' E 014°37'1013.8
2014-Nov-11 02:31N 40°28' E 014°26'1413.7
2014-Nov-11 01:31N 40°26' E 014°08'1112.0
2014-Nov-11 00:34N 40°38' E 014°07'1414.4
2014-Nov-10 23:33N 40°49' E 014°18'2 0.8
2014-Nov-10 21:22N 40°50' E 014°17'0 0.0
2014-Nov-10 20:28N 40°50' E 014°17'0 0.0
2014-Nov-10 18:19N 40°50' E 014°17'0 0.0
2014-Nov-10 17:28N 40°50' E 014°17'0 0.0
2014-Nov-10 16:31N 40°50' E 014°17'0 0.0
2014-Nov-10 14:22N 40°50' E 014°17'0 0.0
2014-Nov-10 13:16N 40°50' E 014°17'0 0.2
2014-Nov-10 12:33N 40°50' E 014°17'5 4.6
2014-Nov-10 11:33N 40°46' E 014°15'1414.4
2014-Nov-10 10:33N 40°37' E 013°60'1716.6
2014-Nov-10 09:33N 40°40' E 013°38'1716.9
2014-Nov-10 08:33N 40°42' E 013°16'4016.6
2014-Nov-10 06:08N 40°59' E 012°28'17114.8
2014-Nov-09 18:33N 43°13' E 010°05'1615.9
2014-Nov-09 17:33N 43°29' E 010°10'8 8.2
2014-Nov-09 16:33N 43°34' E 010°18'0 0.0
2014-Nov-09 15:32N 43°34' E 010°18'0 0.0
2014-Nov-09 14:32N 43°34' E 010°18'0 0.0
2014-Nov-09 13:32N 43°34' E 010°18'0 0.0
2014-Nov-09 12:32N 43°34' E 010°18'0 0.0
2014-Nov-09 11:32N 43°34' E 010°18'0 0.0
2014-Nov-09 10:32N 43°34' E 010°18'0 0.0
2014-Nov-09 09:32N 43°34' E 010°18'0 0.0
2014-Nov-09 08:32N 43°34' E 010°18'0 0.0
2014-Nov-09 07:32N 43°34' E 010°18'0 0.0
2014-Nov-09 06:32N 43°34' E 010°18'0 0.0
2014-Nov-09 05:32N 43°34' E 010°18'0 0.0
2014-Nov-09 04:32N 43°34' E 010°18'0 0.0
2014-Nov-09 03:32N 43°34' E 010°18'0 0.3
2014-Nov-09 02:34N 43°34' E 010°18'7 6.8
2014-Nov-09 01:34N 43°29' E 010°12'1212.2
2014-Nov-09 00:33N 43°33' E 009°56'1414.5
2014-Nov-08 23:34N 43°39' E 009°38'1615.7
2014-Nov-08 22:33N 43°50' E 009°22'1615.9
2014-Nov-08 21:34N 44°01' E 009°07'1615.7
2014-Nov-08 20:33N 44°13' E 008°52'1312.7
2014-Nov-08 19:33N 44°25' E 008°46'1 1.4
2014-Nov-08 18:32N 44°25' E 008°48'0 0.0
2014-Nov-08 17:32N 44°25' E 008°48'0 0.0
2014-Nov-08 16:32N 44°25' E 008°48'0 0.0
2014-Nov-08 15:29N 44°25' E 008°48'0 0.0
2014-Nov-08 14:32N 44°25' E 008°47'0 0.0
2014-Nov-08 13:32N 44°25' E 008°48'0 0.0
2014-Nov-08 12:32N 44°25' E 008°48'0 0.0
2014-Nov-08 11:32N 44°25' E 008°48'0 0.0
2014-Nov-08 10:29N 44°25' E 008°48'0 0.0
2014-Nov-08 09:32N 44°25' E 008°48'0 0.0
2014-Nov-08 08:32N 44°25' E 008°48'0 0.0
2014-Nov-08 07:32N 44°25' E 008°47'0 0.0
2014-Nov-08 06:30N 44°25' E 008°48'0 0.1
2014-Nov-08 05:32N 44°25' E 008°47'0 0.1
2014-Nov-08 04:32N 44°25' E 008°48'0 0.0
2014-Nov-08 03:32N 44°25' E 008°48'0 0.0
2014-Nov-08 02:32N 44°25' E 008°48'0 0.0
2014-Nov-08 01:32N 44°25' E 008°48'0 0.0
2014-Nov-08 00:32N 44°25' E 008°48'0 0.0
2014-Nov-07 23:29N 44°25' E 008°48'0 0.0
2014-Nov-07 22:32N 44°25' E 008°48'0 0.0
2014-Nov-07 21:29N 44°25' E 008°48'0 0.0
2014-Nov-07 20:32N 44°25' E 008°48'0 0.0
2014-Nov-07 19:32N 44°25' E 008°48'0 0.1
2014-Nov-07 18:33N 44°25' E 008°47'3 3.4
2014-Nov-07 17:33N 44°23' E 008°44'8 8.5
2014-Nov-07 16:33N 44°15' E 008°46'1615.9
2014-Nov-07 15:33N 43°59' E 008°51'1615.6
2014-Nov-07 14:33N 43°45' E 008°59'1615.8
2014-Nov-07 13:33N 43°33' E 009°14'1615.7
2014-Nov-07 12:33N 43°20' E 009°26'1615.7
2014-Nov-07 11:33N 43°06' E 009°35'24813.8
2014-Nov-06 17:33N 38°58' E 009°23'1615.7
2014-Nov-06 16:33N 39°07' E 009°06'6 5.3
2014-Nov-06 15:31N 39°13' E 009°05'0 0.0
2014-Nov-06 14:31N 39°13' E 009°05'0 0.0
2014-Nov-06 13:31N 39°13' E 009°05'0 0.0
2014-Nov-06 12:31N 39°13' E 009°05'0 0.0
2014-Nov-06 11:31N 39°13' E 009°05'0 0.0
2014-Nov-06 10:31N 39°13' E 009°05'0 0.0
2014-Nov-06 09:28N 39°13' E 009°05'0 0.0
2014-Nov-06 08:31N 39°13' E 009°05'0 0.0
2014-Nov-06 07:31N 39°13' E 009°05'0 0.0
2014-Nov-06 06:31N 39°13' E 009°05'0 0.0
2014-Nov-06 05:28N 39°13' E 009°05'0 0.0
2014-Nov-06 04:31N 39°13' E 009°04'0 0.0
2014-Nov-06 03:31N 39°13' E 009°05'0 0.0
2014-Nov-06 02:31N 39°13' E 009°05'0 0.0
2014-Nov-06 01:31N 39°13' E 009°05'0 0.0
2014-Nov-06 00:31N 39°13' E 009°05'0 0.0
2014-Nov-05 23:31N 39°13' E 009°05'0 0.0
2014-Nov-05 22:28N 39°13' E 009°05'0 0.0
2014-Nov-05 21:31N 39°13' E 009°05'0 0.0
2014-Nov-05 20:31N 39°13' E 009°05'0 0.0
2014-Nov-05 19:31N 39°13' E 009°05'0 0.0
2014-Nov-05 18:31N 39°13' E 009°05'0 0.0
2014-Nov-05 17:31N 39°13' E 009°05'0 0.0
2014-Nov-05 16:31N 39°13' E 009°05'0 0.0
2014-Nov-05 15:31N 39°13' E 009°05'0 0.0
2014-Nov-05 14:31N 39°13' E 009°05'0 0.0
2014-Nov-05 13:31N 39°13' E 009°05'0 0.0
2014-Nov-05 12:31N 39°13' E 009°05'0 0.0
2014-Nov-05 11:31N 39°13' E 009°05'0 0.0
2014-Nov-05 10:31N 39°13' E 009°05'0 0.0
2014-Nov-05 09:31N 39°13' E 009°05'0 0.0
2014-Nov-05 08:31N 39°13' E 009°05'0 0.0
2014-Nov-05 07:31N 39°13' E 009°05'0 0.0
2014-Nov-05 06:31N 39°13' E 009°05'0 0.0
2014-Nov-05 05:31N 39°13' E 009°05'0 0.0
2014-Nov-05 04:31N 39°13' E 009°05'0 0.0
2014-Nov-05 03:31N 39°13' E 009°05'0 0.0
2014-Nov-05 02:31N 39°13' E 009°05'0 0.0
2014-Nov-05 01:31N 39°13' E 009°05'0 0.0
2014-Nov-05 00:31N 39°13' E 009°05'0 0.0
2014-Nov-04 23:31N 39°13' E 009°05'0 0.0
2014-Nov-04 22:31N 39°13' E 009°05'0 0.0
2014-Nov-04 21:31N 39°13' E 009°05'0 0.0
2014-Nov-04 20:31N 39°13' E 009°05'0 0.0
2014-Nov-04 19:31N 39°13' E 009°05'0 0.0
2014-Nov-04 18:31N 39°13' E 009°05'0 0.0
2014-Nov-04 17:31N 39°13' E 009°05'0 0.0
2014-Nov-04 16:31N 39°13' E 009°05'0 0.0
2014-Nov-04 15:31N 39°13' E 009°05'0 0.0
2014-Nov-04 14:31N 39°13' E 009°05'  
Track history (hours):
 
Tides and Currents Weather Stations Pressure Air Temp Water Temp Dewpoint Dewpoint Depression Visibility Wind Speed Wind Dir Waves Ship Positions

Livorno Express

Last reported at 2014-Nov-14 14:21 UTC. Time now 2014-Nov-27 11:52 UTC.
Position N 36°31' E 014°26'.
Warning: this ship's position is 12 days out of date.

Type: Cargo ship. MMSI: 310541000.

Date/timePositionNaut miles runAvg speedWind from/ knotsBaromVisibWave heightAir tempDewpointWater temp
2014-Nov-14 14:21N 36°31' E 014°26'2815.8
2014-Nov-14 12:33N 36°42' E 013°53'1616.0
2014-Nov-14 11:33N 36°48' E 013°35'23215.3
2014-Nov-13 20:22N 38°55' E 009°30'1012.8
2014-Nov-13 19:33N 39°01' E 009°18'7 7.3
2014-Nov-13 18:33N 39°05' E 009°11'9 8.9
2014-Nov-13 17:33N 39°12' E 009°05'1 0.6
2014-Nov-13 16:31N 39°13' E 009°04'0 0.0
2014-Nov-13 15:31N 39°13' E 009°04'0 0.0
2014-Nov-13 14:31N 39°13' E 009°04'0 0.0
2014-Nov-13 13:31N 39°13' E 009°04'0 0.0
2014-Nov-13 12:31N 39°13' E 009°04'0 0.0
2014-Nov-13 11:31N 39°13' E 009°04'0 0.0
2014-Nov-13 10:31N 39°13' E 009°04'0 0.0
2014-Nov-13 09:31N 39°13' E 009°04'0 0.0
2014-Nov-13 08:31N 39°13' E 009°04'0 0.0
2014-Nov-13 07:31N 39°13' E 009°04'0 0.0
2014-Nov-13 06:32N 39°13' E 009°04'0 0.0
2014-Nov-13 05:24N 39°13' E 009°04'0 0.0
2014-Nov-13 04:30N 39°13' E 009°04'0 0.0
2014-Nov-13 03:31N 39°13' E 009°04'0 0.0
2014-Nov-13 02:16N 39°13' E 009°04'0 0.0
2014-Nov-13 01:31N 39°13' E 009°04'0 0.0
2014-Nov-13 00:31N 39°13' E 009°04'0 0.0
2014-Nov-12 23:16N 39°13' E 009°04'0 0.0
2014-Nov-12 22:28N 39°13' E 009°04'0 0.0
2014-Nov-12 21:31N 39°13' E 009°04'0 0.0
2014-Nov-12 20:31N 39°13' E 009°04'0 0.0
2014-Nov-12 19:31N 39°13' E 009°04'0 0.0
2014-Nov-12 18:28N 39°13' E 009°04'0 0.0
2014-Nov-12 17:31N 39°13' E 009°04'0 0.0
2014-Nov-12 16:31N 39°13' E 009°04'2 2.3
2014-Nov-12 15:33N 39°11' E 009°06'7 6.7
2014-Nov-12 14:33N 39°05' E 009°10'1212.4
2014-Nov-12 13:33N 38°58' E 009°23'1714.4
2014-Nov-12 12:23N 38°60' E 009°45'19915.5
2014-Nov-11 23:33N 40°14' E 013°44'1615.3
2014-Nov-11 22:32N 40°20' E 014°03'1615.8
2014-Nov-11 21:33N 40°26' E 014°21'14 0.7
2014-Nov-11 03:14N 40°33' E 014°37'1013.8
2014-Nov-11 02:31N 40°28' E 014°26'1413.7
2014-Nov-11 01:31N 40°26' E 014°08'1112.0
2014-Nov-11 00:34N 40°38' E 014°07'1414.4
2014-Nov-10 23:33N 40°49' E 014°18'2 0.8
2014-Nov-10 21:22N 40°50' E 014°17'0 0.0
2014-Nov-10 20:28N 40°50' E 014°17'0 0.0
2014-Nov-10 18:19N 40°50' E 014°17'0 0.0
2014-Nov-10 17:28N 40°50' E 014°17'0 0.0
2014-Nov-10 16:31N 40°50' E 014°17'0 0.0
2014-Nov-10 14:22N 40°50' E 014°17'0 0.0
2014-Nov-10 13:16N 40°50' E 014°17'0 0.2
2014-Nov-10 12:33N 40°50' E 014°17'5 4.6
2014-Nov-10 11:33N 40°46' E 014°15'1414.4
2014-Nov-10 10:33N 40°37' E 013°60'1716.6
2014-Nov-10 09:33N 40°40' E 013°38'1716.9
2014-Nov-10 08:33N 40°42' E 013°16'4016.6
2014-Nov-10 06:08N 40°59' E 012°28'17114.8
2014-Nov-09 18:33N 43°13' E 010°05'1615.9
2014-Nov-09 17:33N 43°29' E 010°10'8 8.2
2014-Nov-09 16:33N 43°34' E 010°18'0 0.0
2014-Nov-09 15:32N 43°34' E 010°18'0 0.0
2014-Nov-09 14:32N 43°34' E 010°18'0 0.0
2014-Nov-09 13:32N 43°34' E 010°18'0 0.0
2014-Nov-09 12:32N 43°34' E 010°18'0 0.0
2014-Nov-09 11:32N 43°34' E 010°18'0 0.0
2014-Nov-09 10:32N 43°34' E 010°18'0 0.0
2014-Nov-09 09:32N 43°34' E 010°18'0 0.0
2014-Nov-09 08:32N 43°34' E 010°18'0 0.0
2014-Nov-09 07:32N 43°34' E 010°18'0 0.0
2014-Nov-09 06:32N 43°34' E 010°18'0 0.0
2014-Nov-09 05:32N 43°34' E 010°18'0 0.0
2014-Nov-09 04:32N 43°34' E 010°18'0 0.0
2014-Nov-09 03:32N 43°34' E 010°18'0 0.3
2014-Nov-09 02:34N 43°34' E 010°18'7 6.8
2014-Nov-09 01:34N 43°29' E 010°12'1212.2
2014-Nov-09 00:33N 43°33' E 009°56'1414.5
2014-Nov-08 23:34N 43°39' E 009°38'1615.7
2014-Nov-08 22:33N 43°50' E 009°22'1615.9
2014-Nov-08 21:34N 44°01' E 009°07'1615.7
2014-Nov-08 20:33N 44°13' E 008°52'1312.7
2014-Nov-08 19:33N 44°25' E 008°46'1 1.4
2014-Nov-08 18:32N 44°25' E 008°48'0 0.0
2014-Nov-08 17:32N 44°25' E 008°48'0 0.0
2014-Nov-08 16:32N 44°25' E 008°48'0 0.0
2014-Nov-08 15:29N 44°25' E 008°48'0 0.0
2014-Nov-08 14:32N 44°25' E 008°47'0 0.0
2014-Nov-08 13:32N 44°25' E 008°48'0 0.0
2014-Nov-08 12:32N 44°25' E 008°48'0 0.0
2014-Nov-08 11:32N 44°25' E 008°48'0 0.0
2014-Nov-08 10:29N 44°25' E 008°48'0 0.0
2014-Nov-08 09:32N 44°25' E 008°48'0 0.0
2014-Nov-08 08:32N 44°25' E 008°48'0 0.0
2014-Nov-08 07:32N 44°25' E 008°47'0 0.0
2014-Nov-08 06:30N 44°25' E 008°48'0 0.1
2014-Nov-08 05:32N 44°25' E 008°47'0 0.1
2014-Nov-08 04:32N 44°25' E 008°48'0 0.0
2014-Nov-08 03:32N 44°25' E 008°48'0 0.0
2014-Nov-08 02:32N 44°25' E 008°48'0 0.0
2014-Nov-08 01:32N 44°25' E 008°48'0 0.0
2014-Nov-08 00:32N 44°25' E 008°48'0 0.0
2014-Nov-07 23:29N 44°25' E 008°48'0 0.0
2014-Nov-07 22:32N 44°25' E 008°48'0 0.0
2014-Nov-07 21:29N 44°25' E 008°48'0 0.0
2014-Nov-07 20:32N 44°25' E 008°48'0 0.0
2014-Nov-07 19:32N 44°25' E 008°48'0 0.1
2014-Nov-07 18:33N 44°25' E 008°47'3 3.4
2014-Nov-07 17:33N 44°23' E 008°44'8 8.5
2014-Nov-07 16:33N 44°15' E 008°46'1615.9
2014-Nov-07 15:33N 43°59' E 008°51'1615.6
2014-Nov-07 14:33N 43°45' E 008°59'1615.8
2014-Nov-07 13:33N 43°33' E 009°14'1615.7
2014-Nov-07 12:33N 43°20' E 009°26'1615.7
2014-Nov-07 11:33N 43°06' E 009°35'24813.8
2014-Nov-06 17:33N 38°58' E 009°23'1615.7
2014-Nov-06 16:33N 39°07' E 009°06'6 5.3
2014-Nov-06 15:31N 39°13' E 009°05'0 0.0
2014-Nov-06 14:31N 39°13' E 009°05'0 0.0
2014-Nov-06 13:31N 39°13' E 009°05'0 0.0
2014-Nov-06 12:31N 39°13' E 009°05'0 0.0
2014-Nov-06 11:31N 39°13' E 009°05'0 0.0
2014-Nov-06 10:31N 39°13' E 009°05'0 0.0
2014-Nov-06 09:28N 39°13' E 009°05'0 0.0
2014-Nov-06 08:31N 39°13' E 009°05'0 0.0
2014-Nov-06 07:31N 39°13' E 009°05'0 0.0
2014-Nov-06 06:31N 39°13' E 009°05'0 0.0
2014-Nov-06 05:28N 39°13' E 009°05'0 0.0
2014-Nov-06 04:31N 39°13' E 009°04'0 0.0
2014-Nov-06 03:31N 39°13' E 009°05'0 0.0
2014-Nov-06 02:31N 39°13' E 009°05'0 0.0
2014-Nov-06 01:31N 39°13' E 009°05'0 0.0
2014-Nov-06 00:31N 39°13' E 009°05'0 0.0
2014-Nov-05 23:31N 39°13' E 009°05'0 0.0
2014-Nov-05 22:28N 39°13' E 009°05'0 0.0
2014-Nov-05 21:31N 39°13' E 009°05'0 0.0
2014-Nov-05 20:31N 39°13' E 009°05'0 0.0
2014-Nov-05 19:31N 39°13' E 009°05'0 0.0
2014-Nov-05 18:31N 39°13' E 009°05'0 0.0
2014-Nov-05 17:31N 39°13' E 009°05'0 0.0
2014-Nov-05 16:31N 39°13' E 009°05'0 0.0
2014-Nov-05 15:31N 39°13' E 009°05'0 0.0
2014-Nov-05 14:31N 39°13' E 009°05'0 0.0
2014-Nov-05 13:31N 39°13' E 009°05'0 0.0
2014-Nov-05 12:31N 39°13' E 009°05'0 0.0
2014-Nov-05 11:31N 39°13' E 009°05'0 0.0
2014-Nov-05 10:31N 39°13' E 009°05'0 0.0
2014-Nov-05 09:31N 39°13' E 009°05'0 0.0
2014-Nov-05 08:31N 39°13' E 009°05'0 0.0
2014-Nov-05 07:31N 39°13' E 009°05'0 0.0
2014-Nov-05 06:31N 39°13' E 009°05'0 0.0
2014-Nov-05 05:31N 39°13' E 009°05'0 0.0
2014-Nov-05 04:31N 39°13' E 009°05'0 0.0
2014-Nov-05 03:31N 39°13' E 009°05'0 0.0
2014-Nov-05 02:31N 39°13' E 009°05'0 0.0
2014-Nov-05 01:31N 39°13' E 009°05'0 0.0
2014-Nov-05 00:31N 39°13' E 009°05'0 0.0
2014-Nov-04 23:31N 39°13' E 009°05'0 0.0
2014-Nov-04 22:31N 39°13' E 009°05'0 0.0
2014-Nov-04 21:31N 39°13' E 009°05'0 0.0
2014-Nov-04 20:31N 39°13' E 009°05'0 0.0
2014-Nov-04 19:31N 39°13' E 009°05'0 0.0
2014-Nov-04 18:31N 39°13' E 009°05'0 0.0
2014-Nov-04 17:31N 39°13' E 009°05'0 0.0
2014-Nov-04 16:31N 39°13' E 009°05'0 0.0
2014-Nov-04 15:31N 39°13' E 009°05'0 0.0
2014-Nov-04 14:31N 39°13' E 009°05'  

Dump ship's entire track history